Bryant, South Dakota
Current Conditions -  °F | °C
As of 2:53 AM on Wednesday 28 Jan 2015 (Local Time) from KATY Reporting Station
Clear Clear  
Wind Chill: 23°   Ceiling: Unl
Heat Index: 33°   Visibility: 10mi
Dew Point: 30°   Wind: 15mph
Humidity: 89%   Direction: 160°SSE
Pressure: 29.81"   Gusts: NA
Location:  44.59°N, 97.47°W
Report Text: KATY 280853Z AUTO 16013KT 10SM CLR 01/M01 A2981 RMK AO2 SLP110 T00061011 58023
Loading
Personal Weather Stations






























Interactive Weather Map New forecast layout! Learn more

10-Day Weather Forecast

Advertisements
Track Severe Weather on mobile